Aviation Digital Data Service (ADDS)

Output produced by METARs form (0628 UTC 23 August 2017)
found at http://aviationweather.gov/adds/metars/
 
KMFD 230527Z 2306/2406 29006KT P6SM FEW250 
     FM231600 29010KT P6SM BKN040 
     FM240000 30005KT P6SM FEW040